Time;durP1;ratioP1;P1;durP2;ratioP2;P2;SDS_P1;SDS_P2;PMS_P1;PMS_P2;Temp;Humidity;BMP_temperature;BMP_pressure;BME280_temperature;BME280_humidity;BME280_pressure;Samples;Min_cycle;Max_cycle;Signal;HPM_P1;HPM_P2
2021/10/01 00:00:02;;;;;;;10.20;5.70;;;10.30;99.90;;;;;;6132999;23;20875;-90
2021/10/01 00:02:30;;;;;;;9.50;4.80;;;10.20;99.90;;;;;;6139506;23;20460;-91
2021/10/01 00:04:57;;;;;;;7.53;4.33;;;10.10;99.90;;;;;;6134147;23;20403;-91
2021/10/01 00:07:24;;;;;;;6.60;4.57;;;10.10;99.90;;;;;;6127998;23;20467;-91
2021/10/01 00:09:51;;;;;;;6.33;5.00;;;10.00;99.90;;;;;;6126443;23;20426;-91
2021/10/01 00:12:18;;;;;;;7.10;5.40;;;10.10;99.90;;;;;;6127335;23;20407;-91
2021/10/01 00:14:45;;;;;;;9.83;5.47;;;10.10;99.90;;;;;;6127605;23;20482;-91
2021/10/01 00:17:12;;;;;;;7.50;4.73;;;10.20;99.90;;;;;;6127044;23;20435;-91
2021/10/01 00:19:40;;;;;;;8.20;4.90;;;10.20;99.90;;;;;;6127163;23;20400;-90
2021/10/01 00:22:07;;;;;;;5.73;4.87;;;10.20;99.90;;;;;;6128168;23;20446;-90
2021/10/01 00:24:35;;;;;;;7.67;5.43;;;10.20;99.90;;;;;;6147582;23;20412;-91
2021/10/01 00:27:02;;;;;;;6.10;4.63;;;10.20;99.90;;;;;;6149638;23;20503;-91
2021/10/01 00:29:29;;;;;;;5.83;4.73;;;10.10;99.90;;;;;;6145452;23;20416;-91
2021/10/01 00:31:56;;;;;;;13.83;5.30;;;10.10;99.90;;;;;;6130529;23;21035;-91
2021/10/01 00:34:23;;;;;;;8.60;4.63;;;10.00;99.90;;;;;;6143585;23;20504;-91
2021/10/01 00:36:51;;;;;;;7.70;5.30;;;10.00;99.90;;;;;;6145509;23;20450;-90
2021/10/01 00:39:18;;;;;;;11.37;5.00;;;9.90;99.90;;;;;;6144026;23;20503;-90
2021/10/01 00:41:45;;;;;;;7.50;5.60;;;10.00;99.90;;;;;;6129184;23;20443;-92
2021/10/01 00:44:12;;;;;;;6.90;6.17;;;9.80;99.90;;;;;;6129209;23;20416;-91
2021/10/01 00:47:28;;;;;;;8.30;5.53;;;9.90;99.90;;;;;;6128813;23;20445;-91
2021/10/01 00:49:55;;;;;;;9.20;6.23;;;9.80;99.90;;;;;;6137150;23;20763;-90
2021/10/01 00:52:24;;;;;;;9.03;6.37;;;9.80;99.90;;;;;;6133992;23;20411;-91
2021/10/01 00:54:53;;;;;;;8.30;6.63;;;9.80;99.90;;;;;;6141719;23;20419;-91
2021/10/01 00:57:20;;;;;;;7.10;5.93;;;9.70;99.90;;;;;;6144215;23;20491;-91
2021/10/01 00:59:50;;;;;;;10.40;6.10;;;9.70;99.90;;;;;;6141351;23;20417;-91
2021/10/01 01:02:17;;;;;;;11.77;7.43;;;9.70;99.90;;;;;;6138951;23;20454;-91
2021/10/01 01:04:47;;;;;;;7.50;5.83;;;9.70;99.90;;;;;;6141116;23;20419;-91
2021/10/01 01:07:18;;;;;;;10.17;6.10;;;9.70;99.90;;;;;;6131347;23;20438;-91
2021/10/01 01:09:52;;;;;;;9.17;5.37;;;9.70;99.90;;;;;;6129635;23;20419;-91
2021/10/01 01:12:30;;;;;;;6.43;5.77;;;9.70;99.90;;;;;;6128782;23;20408;-91
2021/10/01 01:15:03;;;;;;;7.10;5.50;;;9.60;99.90;;;;;;6128049;23;20414;-91
2021/10/01 01:17:40;;;;;;;8.70;5.53;;;9.60;99.90;;;;;;6128130;23;20436;-92
2021/10/01 01:20:18;;;;;;;8.50;5.13;;;9.60;99.90;;;;;;6129216;23;20422;-91
2021/10/01 01:22:53;;;;;;;8.30;5.07;;;9.60;99.90;;;;;;6134501;23;20522;-91
2021/10/01 01:25:48;;;;;;;8.27;5.77;;;9.60;99.90;;;;;;6138670;23;20421;-91
2021/10/01 01:28:37;;;;;;;6.57;4.87;;;9.60;99.90;;;;;;6134819;23;20431;-92
2021/10/01 01:31:11;;;;;;;7.53;5.70;;;9.60;99.90;;;;;;6135486;23;20400;-91
2021/10/01 01:33:46;;;;;;;7.87;5.10;;;9.60;99.90;;;;;;6128650;23;20407;-91
2021/10/01 01:36:16;;;;;;;7.37;5.30;;;9.50;99.90;;;;;;6128795;23;20454;-91
2021/10/01 01:38:50;;;;;;;6.43;4.90;;;9.40;99.90;;;;;;6128367;23;20452;-91
2021/10/01 01:41:20;;;;;;;7.80;6.40;;;9.40;99.90;;;;;;6128136;23;20968;-91
2021/10/01 01:43:50;;;;;;;7.20;5.33;;;9.40;99.90;;;;;;6128161;23;20416;-91
2021/10/01 01:46:22;;;;;;;6.53;5.30;;;9.40;99.90;;;;;;6131731;23;20442;-91
2021/10/01 01:48:58;;;;;;;7.70;4.80;;;9.40;99.90;;;;;;6129256;23;20431;-91
2021/10/01 01:51:26;;;;;;;6.77;5.43;;;9.40;99.90;;;;;;6155129;23;20439;-91
2021/10/01 01:53:54;;;;;;;7.37;4.70;;;9.30;99.90;;;;;;6151931;23;20487;-91
2021/10/01 01:56:21;;;;;;;7.37;4.40;;;9.30;99.90;;;;;;6131974;23;20467;-91
2021/10/01 01:58:49;;;;;;;5.87;5.30;;;9.40;99.90;;;;;;6128064;23;20412;-91
2021/10/01 02:01:16;;;;;;;7.37;4.53;;;9.30;99.90;;;;;;6128067;23;20789;-88
2021/10/01 02:03:43;;;;;;;6.80;4.63;;;9.30;99.90;;;;;;6126057;23;20431;-88
2021/10/01 02:06:13;;;;;;;6.60;4.70;;;9.40;99.90;;;;;;6140150;23;20447;-87
2021/10/01 02:08:42;;;;;;;6.30;4.70;;;9.40;99.90;;;;;;6139769;23;20416;-90
2021/10/01 02:11:12;;;;;;;6.00;4.93;;;9.40;99.90;;;;;;6128457;23;20418;-92
2021/10/01 02:13:41;;;;;;;12.17;4.87;;;9.30;99.90;;;;;;6128065;23;20431;-91
2021/10/01 02:16:10;;;;;;;7.30;5.60;;;9.30;99.90;;;;;;6137368;23;20463;-90
2021/10/01 02:18:39;;;;;;;7.00;4.83;;;9.20;99.90;;;;;;6130459;23;20706;-91
2021/10/01 02:21:07;;;;;;;6.20;4.27;;;9.20;99.90;;;;;;6128095;23;20962;-91
2021/10/01 02:23:36;;;;;;;7.00;4.37;;;9.20;99.90;;;;;;6128459;23;20415;-91
2021/10/01 02:28:55;;;;;;;12.03;5.57;;;9.20;99.90;;;;;;6129310;23;20392;-91
2021/10/01 02:31:42;;;;;;;9.20;5.07;;;9.20;99.90;;;;;;6145877;23;20442;-91
2021/10/01 02:34:10;;;;;;;10.60;5.20;;;9.10;99.90;;;;;;6154828;23;20424;-91
2021/10/01 02:36:37;;;;;;;8.50;5.83;;;9.10;99.90;;;;;;6151752;23;20522;-91
2021/10/01 02:39:06;;;;;;;13.00;5.70;;;9.10;99.90;;;;;;6152704;23;20427;-91
2021/10/01 02:41:33;;;;;;;9.50;5.70;;;9.10;99.90;;;;;;6154475;23;20470;-91
2021/10/01 02:43:59;;;;;;;6.93;4.43;;;9.10;99.90;;;;;;6151458;23;20415;-90
2021/10/01 02:46:26;;;;;;;7.80;6.13;;;9.10;99.90;;;;;;6153503;23;20435;-91
2021/10/01 02:48:53;;;;;;;5.90;5.00;;;9.10;99.90;;;;;;6153933;23;20403;-91
2021/10/01 02:51:25;;;;;;;9.87;5.50;;;9.00;99.90;;;;;;6154031;23;20414;-90
2021/10/01 02:54:09;;;;;;;5.27;4.60;;;9.00;99.90;;;;;;6150999;23;20755;-90
2021/10/01 02:56:40;;;;;;;6.83;4.97;;;9.00;99.90;;;;;;6133781;23;20478;-91
2021/10/01 02:59:09;;;;;;;8.27;4.80;;;9.00;99.90;;;;;;6127603;23;20423;-91
2021/10/01 03:01:40;;;;;;;7.30;5.70;;;9.00;99.90;;;;;;6128430;23;20439;-92
2021/10/01 03:04:13;;;;;;;11.23;6.07;;;9.00;99.90;;;;;;6127694;23;20442;-91
2021/10/01 03:06:46;;;;;;;6.87;6.13;;;9.00;99.90;;;;;;6132506;23;20435;-91
2021/10/01 03:09:18;;;;;;;8.17;5.03;;;9.00;99.90;;;;;;6152254;23;20416;-92
2021/10/01 03:11:46;;;;;;;10.13;5.43;;;9.00;99.90;;;;;;6142678;23;20404;-90
2021/10/01 03:14:15;;;;;;;9.90;6.60;;;8.90;99.90;;;;;;6144575;23;20413;-92
2021/10/01 03:16:44;;;;;;;9.13;5.33;;;8.90;99.90;;;;;;6127456;23;20441;-91
2021/10/01 03:19:12;;;;;;;10.43;5.90;;;8.90;99.90;;;;;;6132924;23;20416;-91
2021/10/01 03:21:42;;;;;;;8.30;5.60;;;8.80;99.90;;;;;;6125132;23;20443;-92
2021/10/01 03:24:11;;;;;;;8.60;5.77;;;8.80;99.90;;;;;;6143471;23;20404;-91
2021/10/01 03:26:40;;;;;;;10.53;5.90;;;8.80;99.90;;;;;;6129170;23;20786;-91
2021/10/01 03:29:07;;;;;;;7.70;5.03;;;8.80;99.90;;;;;;6128578;23;20824;-91
2021/10/01 03:31:34;;;;;;;8.80;5.33;;;8.80;99.90;;;;;;6140702;23;20432;-91
2021/10/01 03:34:01;;;;;;;7.60;5.53;;;8.80;99.90;;;;;;6150475;23;20418;-91
2021/10/01 03:36:28;;;;;;;8.70;5.50;;;8.80;99.90;;;;;;6142697;23;20526;-91
2021/10/01 03:38:56;;;;;;;10.70;7.03;;;8.70;99.90;;;;;;6128311;23;20413;-91
2021/10/01 03:41:26;;;;;;;8.53;5.20;;;8.70;99.90;;;;;;6131981;23;20738;-91
2021/10/01 03:43:54;;;;;;;6.73;6.00;;;8.70;99.90;;;;;;6134851;23;20425;-94
2021/10/01 03:48:57;;;;;;;9.53;5.43;;;8.70;99.90;;;;;;6135723;23;20427;-91
2021/10/01 03:51:27;;;;;;;12.13;6.53;;;8.70;99.90;;;;;;6133316;23;20435;-92
2021/10/01 03:53:55;;;;;;;6.30;4.70;;;8.60;99.90;;;;;;6140755;23;20779;-92
2021/10/01 03:56:23;;;;;;;12.20;6.23;;;8.70;99.90;;;;;;6131473;23;20431;-91
2021/10/01 03:58:51;;;;;;;9.93;6.73;;;8.70;99.90;;;;;;6147414;23;20388;-90
2021/10/01 04:01:19;;;;;;;7.90;5.57;;;8.70;99.90;;;;;;6154113;23;20388;-92
2021/10/01 04:03:49;;;;;;;5.27;4.77;;;8.70;99.90;;;;;;6148293;23;20409;-91
2021/10/01 04:06:20;;;;;;;7.67;4.93;;;8.70;99.90;;;;;;6145952;23;20431;-93
2021/10/01 04:08:53;;;;;;;6.00;4.80;;;8.70;99.90;;;;;;6152915;23;20403;-94
2021/10/01 04:11:22;;;;;;;7.00;4.80;;;8.70;99.90;;;;;;6151139;23;20416;-93
2021/10/01 04:13:50;;;;;;;8.63;5.83;;;8.70;99.90;;;;;;6142989;23;20400;-92
2021/10/01 04:16:23;;;;;;;6.90;5.47;;;8.60;99.90;;;;;;6140949;23;20489;-93
2021/10/01 04:18:53;;;;;;;8.00;5.47;;;8.70;99.90;;;;;;6148411;23;20395;-90
2021/10/01 04:21:20;;;;;;;6.70;5.13;;;8.70;99.90;;;;;;6152881;23;20396;-90
2021/10/01 04:23:47;;;;;;;6.43;4.60;;;8.70;99.90;;;;;;6128009;23;20939;-90
2021/10/01 04:26:14;;;;;;;6.07;4.93;;;8.60;99.90;;;;;;6132042;23;20436;-91
2021/10/01 04:28:45;;;;;;;9.83;6.73;;;8.60;99.90;;;;;;6128090;23;20737;-91
2021/10/01 04:31:12;;;;;;;17.07;5.77;;;8.60;99.90;;;;;;6129090;23;20749;-90
2021/10/01 04:33:42;;;;;;;9.97;6.73;;;8.60;99.90;;;;;;6126771;23;20411;-92
2021/10/01 04:36:09;;;;;;;7.60;5.23;;;8.60;99.90;;;;;;6127044;23;20423;-91
2021/10/01 04:38:36;;;;;;;8.83;6.40;;;8.60;99.90;;;;;;6127244;23;20766;-91
2021/10/01 04:41:03;;;;;;;14.17;6.77;;;8.60;99.90;;;;;;6126611;23;20419;-91
2021/10/01 04:43:30;;;;;;;7.33;5.87;;;8.60;99.90;;;;;;6126905;23;20518;-91
2021/10/01 04:45:59;;;;;;;7.47;5.77;;;8.60;99.90;;;;;;6128860;23;20425;-91
2021/10/01 04:48:26;;;;;;;6.37;5.60;;;8.60;99.90;;;;;;6128515;23;20986;-91
2021/10/01 04:50:54;;;;;;;8.53;5.83;;;8.60;99.90;;;;;;6143175;23;20439;-90
2021/10/01 04:53:21;;;;;;;6.97;5.30;;;8.50;99.90;;;;;;6131634;23;20423;-91
2021/10/01 04:55:59;;;;;;;7.63;5.43;;;8.60;99.90;;;;;;6130332;23;20418;-90
2021/10/01 04:58:26;;;;;;;8.40;5.83;;;8.50;99.90;;;;;;6140859;23;20399;-91
2021/10/01 05:00:53;;;;;;;10.30;5.60;;;8.50;99.90;;;;;;6152651;23;20399;-91
2021/10/01 05:03:20;;;;;;;10.63;5.97;;;8.40;99.90;;;;;;6135925;23;20436;-91
2021/10/01 05:05:47;;;;;;;12.07;7.40;;;8.40;99.90;;;;;;6131908;23;20422;-91
2021/10/01 05:08:15;;;;;;;10.13;6.37;;;8.40;99.90;;;;;;6130401;23;20460;-92
2021/10/01 05:10:42;;;;;;;10.13;6.80;;;8.40;99.90;;;;;;6144731;23;20416;-92
2021/10/01 05:13:09;;;;;;;10.50;7.47;;;8.40;99.90;;;;;;6128985;23;20418;-92
2021/10/01 05:15:42;;;;;;;15.17;7.63;;;8.40;99.90;;;;;;6127765;23;20494;-92
2021/10/01 05:18:14;;;;;;;11.40;7.37;;;8.40;99.90;;;;;;6128290;23;20827;-91
2021/10/01 05:20:42;;;;;;;12.17;6.80;;;8.40;99.90;;;;;;6129298;23;20446;-91
2021/10/01 05:23:12;;;;;;;10.70;6.27;;;8.40;99.90;;;;;;6129145;23;20534;-91
2021/10/01 05:25:45;;;;;;;15.83;6.87;;;8.40;99.90;;;;;;6130963;23;20416;-90
2021/10/01 05:28:12;;;;;;;10.87;6.90;;;8.40;99.90;;;;;;6146591;23;20447;-91
2021/10/01 05:30:43;;;;;;;12.60;7.47;;;8.40;99.90;;;;;;6151282;23;20400;-91
2021/10/01 05:33:13;;;;;;;9.77;6.23;;;8.40;99.90;;;;;;6129641;23;20411;-91
2021/10/01 05:35:43;;;;;;;8.93;6.60;;;8.40;99.90;;;;;;6130116;23;20411;-91
2021/10/01 05:38:13;;;;;;;9.97;7.10;;;8.40;99.90;;;;;;6129954;23;20930;-91
2021/10/01 05:40:42;;;;;;;8.87;7.87;;;8.40;99.90;;;;;;6129223;23;20415;-90
2021/10/01 05:43:09;;;;;;;9.80;6.60;;;8.40;99.90;;;;;;6129165;23;20471;-91
2021/10/01 05:45:36;;;;;;;9.60;6.40;;;8.40;99.90;;;;;;6130560;23;20416;-91
2021/10/01 05:48:03;;;;;;;11.77;6.23;;;8.50;99.90;;;;;;6133345;23;20522;-91
2021/10/01 05:50:32;;;;;;;10.93;6.53;;;8.50;99.90;;;;;;6131505;23;20463;-92
2021/10/01 05:53:01;;;;;;;12.53;6.60;;;8.50;99.90;;;;;;6130636;23;20416;-91
2021/10/01 05:55:31;;;;;;;16.20;6.80;;;8.60;99.90;;;;;;6129412;23;20447;-91
2021/10/01 05:58:05;;;;;;;12.97;6.40;;;8.60;99.90;;;;;;6128623;23;20432;-91
2021/10/01 06:00:35;;;;;;;9.30;5.50;;;8.60;99.90;;;;;;6129410;23;20467;-91
2021/10/01 06:03:02;;;;;;;10.23;5.13;;;8.60;99.90;;;;;;6137191;23;20450;-91
2021/10/01 06:05:29;;;;;;;9.03;5.90;;;8.70;99.90;;;;;;6148252;23;20412;-90
2021/10/01 06:07:59;;;;;;;8.70;5.30;;;8.70;99.90;;;;;;6153351;23;20435;-90
2021/10/01 06:10:27;;;;;;;13.93;5.90;;;8.70;99.90;;;;;;6148493;23;20388;-91
2021/10/01 06:12:54;;;;;;;13.60;5.57;;;8.70;99.90;;;;;;6148192;23;20427;-91
2021/10/01 06:15:27;;;;;;;18.37;6.47;;;8.70;99.90;;;;;;6150320;23;20395;-90
2021/10/01 06:17:54;;;;;;;6.23;5.10;;;8.80;99.90;;;;;;6133746;23;20440;-91
2021/10/01 06:20:23;;;;;;;9.33;5.13;;;8.80;99.90;;;;;;6139826;23;20396;-91
2021/10/01 06:22:52;;;;;;;16.83;6.50;;;8.80;99.90;;;;;;6149205;23;20439;-91
2021/10/01 06:25:23;;;;;;;7.80;5.77;;;8.80;99.90;;;;;;6139058;23;20503;-91
2021/10/01 06:27:52;;;;;;;6.70;5.70;;;8.90;99.90;;;;;;6130808;23;20432;-91
2021/10/01 06:30:26;;;;;;;17.90;7.20;;;8.90;99.90;;;;;;6136661;23;20400;-91
2021/10/01 06:32:57;;;;;;;12.43;5.60;;;8.90;99.90;;;;;;6154628;23;20407;-92
2021/10/01 06:35:24;;;;;;;9.70;7.80;;;8.90;99.90;;;;;;6154659;23;20412;-93
2021/10/01 06:37:51;;;;;;;11.87;6.67;;;9.00;99.90;;;;;;6151767;23;20435;-92
2021/10/01 06:40:22;;;;;;;9.87;5.60;;;9.00;99.90;;;;;;6151631;23;20478;-91
2021/10/01 06:42:51;;;;;;;11.83;6.87;;;9.10;99.90;;;;;;6153772;23;20447;-91
2021/10/01 06:45:23;;;;;;;13.73;7.00;;;9.10;99.90;;;;;;6149057;23;20856;-91
2021/10/01 06:48:06;;;;;;;9.93;7.00;;;9.20;99.90;;;;;;6140717;23;20516;-91
2021/10/01 06:50:56;;;;;;;12.90;6.77;;;9.20;99.90;;;;;;6139551;23;20443;-90
2021/10/01 08:20:43;;;;;;;9.30;5.27;;;12.60;99.90;;;;;;5999777;23;20461;-87
2021/10/01 08:23:58;;;;;;;7.50;5.33;;;12.90;99.90;;;;;;6099018;23;20522;-88
2021/10/01 08:27:04;;;;;;;9.00;4.40;;;13.80;99.90;;;;;;6010187;23;20424;-88
2021/10/01 08:49:08;;;;;;;7.07;3.50;;;15.30;96.30;;;;;;6002322;23;20437;-88
2021/10/01 08:51:59;;;;;;;8.47;3.37;;;16.20;94.50;;;;;;6064205;23;20764;-87
2021/10/01 08:54:30;;;;;;;10.90;3.90;;;16.50;93.00;;;;;;6107732;23;20416;-87
2021/10/01 08:57:10;;;;;;;10.00;3.30;;;16.60;92.80;;;;;;6111860;23;20944;-87
2021/10/01 08:59:49;;;;;;;7.93;4.20;;;17.00;92.40;;;;;;6113642;23;20471;-87
2021/10/01 09:02:24;;;;;;;6.47;4.03;;;18.80;90.60;;;;;;6127322;23;20408;-86
2021/10/01 09:04:55;;;;;;;6.90;3.90;;;20.70;84.70;;;;;;6128203;23;20431;-85
2021/10/01 09:07:23;;;;;;;6.20;3.07;;;22.30;76.50;;;;;;6129347;23;20916;-87
2021/10/01 09:09:53;;;;;;;5.40;3.73;;;21.80;72.70;;;;;;6130686;23;20820;-85
2021/10/01 09:12:21;;;;;;;9.37;4.50;;;21.80;73.60;;;;;;6128789;23;20397;-85
2021/10/01 09:14:51;;;;;;;6.40;3.57;;;22.10;70.30;;;;;;6131070;23;20446;-84
2021/10/01 09:17:20;;;;;;;4.87;3.50;;;22.80;68.90;;;;;;6128225;23;20843;-84
2021/10/01 09:19:47;;;;;;;4.03;3.60;;;24.30;64.00;;;;;;6128645;23;20434;-85
2021/10/01 09:22:26;;;;;;;6.20;2.87;;;25.30;60.90;;;;;;6129288;23;20411;-85
2021/10/01 09:24:53;;;;;;;4.20;3.63;;;26.70;57.30;;;;;;6128313;23;20732;-85
2021/10/01 09:27:34;;;;;;;5.90;3.40;;;27.00;55.60;;;;;;6128931;23;20748;-84
2021/10/01 09:30:01;;;;;;;3.47;3.10;;;26.20;54.70;;;;;;6130602;23;20525;-84
2021/10/01 09:32:27;;;;;;;6.77;3.20;;;26.50;55.90;;;;;;6136824;23;20407;-85
2021/10/01 09:34:54;;;;;;;5.33;3.30;;;27.60;54.30;;;;;;6139346;23;20407;-84
2021/10/01 09:37:26;;;;;;;4.03;3.37;;;27.80;52.20;;;;;;6137725;23;20396;-85
2021/10/01 09:39:56;;;;;;;4.17;3.60;;;28.50;52.30;;;;;;6129411;23;20914;-85
2021/10/01 09:42:25;;;;;;;8.20;3.13;;;29.10;50.60;;;;;;6131790;23;20398;-84
2021/10/01 09:44:54;;;;;;;5.20;3.27;;;29.40;48.70;;;;;;6148785;23;20442;-86
2021/10/01 09:47:26;;;;;;;5.37;3.80;;;29.70;47.80;;;;;;6142774;23;20404;-86
2021/10/01 09:49:56;;;;;;;5.43;3.00;;;29.20;48.20;;;;;;6127938;23;20428;-86
2021/10/01 09:52:24;;;;;;;8.00;4.10;;;29.10;47.50;;;;;;6128093;23;20393;-86
2021/10/01 09:54:52;;;;;;;5.40;3.70;;;29.70;47.40;;;;;;6130507;23;20491;-86
2021/10/01 09:57:20;;;;;;;3.23;2.90;;;29.60;47.00;;;;;;6129729;23;20430;-86
2021/10/01 09:59:46;;;;;;;6.23;3.97;;;29.60;48.00;;;;;;6128674;23;20461;-86
2021/10/01 10:02:14;;;;;;;8.73;3.43;;;30.70;46.90;;;;;;6131106;23;20899;-86
2021/10/01 10:04:45;;;;;;;6.80;3.77;;;31.10;46.10;;;;;;6133840;23;20449;-85
2021/10/01 10:07:14;;;;;;;4.17;3.33;;;31.50;44.40;;;;;;6142029;23;20391;-86
2021/10/01 10:09:43;;;;;;;4.57;3.23;;;31.80;43.10;;;;;;6150969;23;20455;-86
2021/10/01 10:12:13;;;;;;;4.40;3.00;;;31.80;43.90;;;;;;6153350;23;20408;-85
2021/10/01 10:14:47;;;;;;;6.03;3.30;;;31.70;43.20;;;;;;6152487;23;20411;-85
2021/10/01 10:17:19;;;;;;;6.13;3.00;;;31.20;43.10;;;;;;6148677;23;20395;-85
2021/10/01 10:19:46;;;;;;;11.73;3.90;;;31.50;42.90;;;;;;6134842;23;20824;-85
2021/10/01 10:22:13;;;;;;;3.03;2.77;;;31.60;43.20;;;;;;6129051;23;20384;-84
2021/10/01 10:24:40;;;;;;;3.67;2.60;;;31.50;42.40;;;;;;6129019;23;20494;-85
2021/10/01 10:27:07;;;;;;;4.93;2.60;;;32.10;42.60;;;;;;6128078;23;20411;-85
2021/10/01 10:29:34;;;;;;;5.43;3.30;;;32.10;41.90;;;;;;6144254;23;20424;-85
2021/10/01 10:32:06;;;;;;;7.43;2.67;;;31.40;42.20;;;;;;6145273;23;20412;-85
2021/10/01 10:34:33;;;;;;;3.47;2.83;;;31.50;42.00;;;;;;6137125;23;20384;-86
2021/10/01 10:37:02;;;;;;;2.90;2.60;;;31.70;42.70;;;;;;6133466;23;20415;-85
2021/10/01 10:39:41;;;;;;;6.40;2.80;;;31.90;42.50;;;;;;6142373;23;20428;-84
2021/10/01 10:42:16;;;;;;;5.37;2.90;;;31.50;42.90;;;;;;6144729;23;20771;-84
2021/10/01 10:44:46;;;;;;;4.07;2.30;;;32.80;41.40;;;;;;6129387;23;20439;-85
2021/10/01 10:47:53;;;;;;;3.00;2.33;;;33.30;39.70;;;;;;6126211;23;20411;-85
2021/10/01 10:50:38;;;;;;;6.67;4.20;;;32.90;40.00;;;;;;6129133;23;20415;-84
2021/10/01 10:53:11;;;;;;;3.30;2.13;;;32.10;40.90;;;;;;6127648;23;20377;-85
2021/10/01 10:55:50;;;;;;;4.23;2.53;;;32.80;40.60;;;;;;6130525;23;20411;-85
2021/10/01 10:58:39;;;;;;;4.80;2.33;;;32.60;40.30;;;;;;6129269;23;20502;-85
2021/10/01 11:01:25;;;;;;;3.37;2.10;;;33.30;39.80;;;;;;6092634;23;20424;-85
2021/10/01 11:04:24;;;;;;;4.87;2.00;;;32.40;38.90;;;;;;6105665;23;20439;-86
2021/10/01 11:06:51;;;;;;;4.40;1.87;;;31.70;40.10;;;;;;6099759;23;20421;-84
2021/10/01 11:09:27;;;;;;;3.80;2.30;;;32.00;40.80;;;;;;6098407;23;20421;-85
2021/10/01 11:11:58;;;;;;;7.20;2.70;;;32.00;41.20;;;;;;6098438;23;20409;-85
2021/10/01 11:14:27;;;;;;;3.37;2.57;;;32.30;40.50;;;;;;6097524;23;20417;-86
2021/10/01 11:17:17;;;;;;;4.03;1.60;;;32.40;39.20;;;;;;6096106;23;20408;-84
2021/10/01 11:19:48;;;;;;;4.23;2.00;;;33.00;39.80;;;;;;6097019;23;20923;-84
2021/10/01 11:22:33;;;;;;;2.70;1.50;;;33.10;38.60;;;;;;6105981;23;20416;-84
2021/10/01 11:25:07;;;;;;;5.83;1.60;;;32.80;38.40;;;;;;6108259;23;20540;-85
2021/10/01 11:27:45;;;;;;;1.50;1.30;;;33.60;38.60;;;;;;6099944;23;20400;-84
2021/10/01 11:30:13;;;;;;;1.87;1.20;;;33.00;36.90;;;;;;6097234;23;20400;-84
2021/10/01 11:32:39;;;;;;;1.80;1.20;;;33.10;36.80;;;;;;6097876;23;20427;-84
2021/10/01 11:35:08;;;;;;;2.40;1.23;;;33.60;36.40;;;;;;6098805;23;20425;-85
2021/10/01 11:37:38;;;;;;;4.10;1.57;;;33.90;35.60;;;;;;6095797;23;20412;-84
2021/10/01 11:40:08;;;;;;;2.50;1.47;;;34.60;35.70;;;;;;6096750;23;20406;-84
2021/10/01 11:42:38;;;;;;;1.37;1.20;;;33.80;35.70;;;;;;6097202;23;20891;-84
2021/10/01 11:45:11;;;;;;;1.90;1.30;;;34.00;35.80;;;;;;6096943;23;21080;-84
2021/10/01 11:47:38;;;;;;;3.90;1.60;;;34.60;35.30;;;;;;6101955;23;20409;-85
2021/10/01 11:50:08;;;;;;;2.40;1.50;;;34.30;34.40;;;;;;6105668;23;20409;-85
2021/10/01 11:52:46;;;;;;;2.90;1.60;;;34.40;34.30;;;;;;6100526;23;20409;-85
2021/10/01 11:55:14;;;;;;;2.57;1.30;;;35.20;34.20;;;;;;6108230;23;20385;-84
2021/10/01 11:57:43;;;;;;;2.40;1.30;;;36.30;32.90;;;;;;6097037;23;20463;-84
2021/10/01 12:00:12;;;;;;;3.30;1.30;;;36.00;31.90;;;;;;6114264;23;21173;-84
2021/10/01 12:02:40;;;;;;;2.17;1.27;;;35.40;30.50;;;;;;6127006;23;20985;-84
2021/10/01 12:05:27;;;;;;;2.10;1.53;;;34.70;31.20;;;;;;6135455;23;20439;-85
2021/10/01 12:07:56;;;;;;;1.60;1.00;;;34.80;31.40;;;;;;6142824;23;20460;-84
2021/10/01 12:10:25;;;;;;;2.50;1.30;;;35.60;31.00;;;;;;6130010;23;20892;-84
2021/10/01 12:13:13;;;;;;;3.10;1.40;;;35.80;29.70;;;;;;6129681;23;20404;-84
2021/10/01 12:15:48;;;;;;;2.00;1.23;;;35.90;29.20;;;;;;6129867;23;20414;-85
2021/10/01 12:18:36;;;;;;;1.23;1.03;;;33.90;30.30;;;;;;6129164;23;20458;-84
2021/10/01 12:21:08;;;;;;;1.70;1.20;;;34.60;30.20;;;;;;6145006;23;20400;-84
2021/10/01 12:23:37;;;;;;;2.20;1.73;;;34.80;30.10;;;;;;6149771;23;20396;-85
2021/10/01 12:26:19;;;;;;;1.80;0.83;;;36.00;29.70;;;;;;6151376;23;20402;-84
2021/10/01 12:29:02;;;;;;;1.70;1.23;;;36.70;28.10;;;;;;6139133;23;20478;-85
2021/10/01 12:31:31;;;;;;;1.83;1.10;;;35.00;28.60;;;;;;6148626;23;20398;-84
2021/10/01 12:33:59;;;;;;;2.27;1.43;;;34.50;29.70;;;;;;6138177;23;20403;-84
2021/10/01 12:36:28;;;;;;;3.37;1.70;;;34.40;29.90;;;;;;6130924;23;20404;-84
2021/10/01 12:38:57;;;;;;;2.40;1.40;;;33.30;30.50;;;;;;6130712;23;20427;-85
2021/10/01 12:41:25;;;;;;;2.07;1.53;;;33.50;30.70;;;;;;6130950;23;20466;-84
2021/10/01 12:43:57;;;;;;;1.90;1.23;;;30.40;32.10;;;;;;6130192;23;20427;-84
2021/10/01 12:46:42;;;;;;;1.27;1.13;;;29.90;34.70;;;;;;6132163;23;20395;-84
2021/10/01 12:49:18;;;;;;;2.23;0.97;;;29.80;35.50;;;;;;6132934;23;20428;-84
2021/10/01 12:52:13;;;;;;;2.40;1.63;;;31.60;33.20;;;;;;6149100;23;20419;-84
2021/10/01 12:54:50;;;;;;;2.10;1.23;;;33.20;31.50;;;;;;6129653;23;20416;-85
2021/10/01 12:57:27;;;;;;;2.27;1.40;;;33.60;31.10;;;;;;6133026;23;20858;-85
2021/10/01 12:59:55;;;;;;;2.30;1.37;;;32.40;31.30;;;;;;6136400;23;20859;-82
2021/10/01 13:02:24;;;;;;;1.70;1.30;;;32.90;31.80;;;;;;6142992;23;20466;-81
2021/10/01 13:04:58;;;;;;;1.93;1.70;;;31.50;31.60;;;;;;6143340;23;20463;-83
2021/10/01 13:07:32;;;;;;;2.67;1.33;;;30.00;33.50;;;;;;6138545;23;20525;-84
2021/10/01 13:10:01;;;;;;;1.60;1.50;;;28.60;35.50;;;;;;6142177;23;20533;-82
2021/10/01 13:12:34;;;;;;;5.20;1.47;;;27.90;37.40;;;;;;6141239;23;20474;-82
2021/10/01 13:15:25;;;;;;;1.80;1.33;;;27.50;39.10;;;;;;6138949;23;20396;-83
2021/10/01 13:18:08;;;;;;;2.07;1.80;;;27.20;39.30;;;;;;6140522;23;20879;-82
2021/10/01 13:20:38;;;;;;;3.03;1.90;;;27.10;40.50;;;;;;6138485;23;20408;-82
2021/10/01 13:23:08;;;;;;;2.33;1.60;;;27.30;40.70;;;;;;6139472;23;20411;-82
2021/10/01 13:25:36;;;;;;;3.10;1.80;;;26.90;41.20;;;;;;6138121;23;20439;-82
2021/10/01 13:28:04;;;;;;;6.23;1.90;;;26.40;40.20;;;;;;6138066;23;20462;-82
2021/10/01 13:30:32;;;;;;;4.47;1.63;;;25.40;40.50;;;;;;6138194;23;20408;-82
2021/10/01 13:32:59;;;;;;;3.47;1.60;;;25.10;42.30;;;;;;6139031;23;20427;-81
2021/10/01 13:35:27;;;;;;;2.90;1.73;;;25.00;42.50;;;;;;6138726;23;20404;-82
2021/10/01 13:37:54;;;;;;;2.20;1.70;;;25.20;42.80;;;;;;6145531;23;20473;-82
2021/10/01 13:40:22;;;;;;;2.20;1.60;;;25.30;43.30;;;;;;6145757;23;20902;-83
2021/10/01 13:42:50;;;;;;;4.40;1.80;;;25.50;43.10;;;;;;6137549;23;20408;-82
2021/10/01 13:45:18;;;;;;;3.30;2.13;;;25.60;43.70;;;;;;6139011;23;20470;-82
2021/10/01 13:47:45;;;;;;;3.00;1.80;;;25.50;44.60;;;;;;6139139;23;20412;-82
2021/10/01 13:50:13;;;;;;;3.03;2.07;;;25.60;44.70;;;;;;6138326;23;20415;-81
2021/10/01 13:52:40;;;;;;;4.30;1.77;;;25.50;44.40;;;;;;6144246;23;20418;-82
2021/10/01 13:55:09;;;;;;;3.63;2.07;;;25.60;44.50;;;;;;6138764;23;20414;-82
2021/10/01 13:57:38;;;;;;;6.33;2.30;;;25.60;44.40;;;;;;6138301;23;20430;-81
2021/10/01 14:00:07;;;;;;;3.00;2.30;;;25.70;45.30;;;;;;6137255;23;20467;-81
2021/10/01 14:02:36;;;;;;;3.00;2.40;;;25.40;45.80;;;;;;6139007;23;20411;-81
2021/10/01 14:05:04;;;;;;;2.33;1.70;;;25.50;46.10;;;;;;6137565;23;20435;-81
2021/10/01 14:07:31;;;;;;;3.30;1.93;;;25.90;45.90;;;;;;6137064;23;20408;-81
2021/10/01 14:10:00;;;;;;;2.50;1.90;;;26.10;45.70;;;;;;6134560;23;20434;-82
2021/10/01 14:12:27;;;;;;;2.77;2.00;;;26.00;46.10;;;;;;6135780;23;20427;-81
2021/10/01 14:14:55;;;;;;;3.53;2.07;;;25.90;45.80;;;;;;6135088;23;20415;-81
2021/10/01 14:17:22;;;;;;;3.70;2.70;;;25.90;46.40;;;;;;6137155;23;20926;-84
2021/10/01 14:19:49;;;;;;;2.73;2.43;;;25.70;46.60;;;;;;6136365;23;20437;-82
2021/10/01 14:22:16;;;;;;;2.50;2.30;;;26.00;46.80;;;;;;6134951;23;20413;-82
2021/10/01 14:24:43;;;;;;;3.30;2.87;;;26.00;46.70;;;;;;6133919;23;20453;-82
2021/10/01 14:27:10;;;;;;;2.57;2.37;;;25.70;49.00;;;;;;6133907;23;20392;-82
2021/10/01 14:29:36;;;;;;;5.40;2.77;;;25.60;49.70;;;;;;6134463;23;20493;-82
2021/10/01 14:32:05;;;;;;;3.07;2.77;;;25.50;50.40;;;;;;6134576;23;20414;-83
2021/10/01 14:34:32;;;;;;;3.00;2.70;;;25.70;50.10;;;;;;6136475;23;20415;-82
2021/10/01 14:36:59;;;;;;;2.80;2.50;;;26.10;49.70;;;;;;6138028;23;20422;-82
2021/10/01 14:39:25;;;;;;;3.10;2.80;;;26.60;48.80;;;;;;6138284;23;20436;-81
2021/10/01 14:41:52;;;;;;;3.00;2.20;;;27.10;48.40;;;;;;6138957;23;20433;-82
2021/10/01 14:44:19;;;;;;;3.53;2.73;;;26.50;48.60;;;;;;6138640;23;20419;-82
2021/10/01 14:46:46;;;;;;;3.57;2.60;;;26.50;49.40;;;;;;6138564;23;20891;-82
2021/10/01 14:49:14;;;;;;;3.73;2.77;;;26.50;49.40;;;;;;6144282;23;20433;-81
2021/10/01 14:51:41;;;;;;;3.27;2.73;;;26.40;49.80;;;;;;6146035;23;20435;-81
2021/10/01 14:54:08;;;;;;;5.73;3.67;;;26.30;50.20;;;;;;6146628;23;20450;-81
2021/10/01 14:56:35;;;;;;;3.30;2.93;;;26.30;49.80;;;;;;6152202;23;20388;-81
2021/10/01 14:59:02;;;;;;;3.70;3.07;;;26.10;50.90;;;;;;6148928;23;20470;-81
2021/10/01 15:01:28;;;;;;;7.87;3.43;;;25.70;51.30;;;;;;6140893;23;20396;-81